Shenandoah Heights, Pennsylvania
Current Conditions -  °F | °C
As of 4:35 AM on Thursday 23 Oct 2014 (Local Time) from KHZL Reporting Station
Overcast Overcast  
Wind Chill: 38°   Ceiling: 700
Heat Index: 45°   Visibility: 10mi
Dew Point: 43°   Wind: 14mph
Humidity: 93%   Direction: 310°NW
Pressure: 29.86"   Gusts: 23mph
Location:  40.8208°N, 76.1672°W
Report Text: KHZL 230835Z AUTO 31012G20KT 10SM OVC007 07/06 A2986 RMK AO2 LTG DSNT SE
Loading
Personal Weather Stations






























Interactive Weather Map
Tropical Storm Tracking
New forecast layout! Learn more

10-Day Weather Forecast

Advertisements
Track Severe Weather on mobile